createdAt,value
2017-10-14T00:00:00.404Z,1010.6
2017-10-14T00:01:01.140Z,1010.7
2017-10-14T00:02:01.877Z,1010.7
2017-10-14T00:03:02.615Z,1010.7
2017-10-14T00:04:03.421Z,1010.7
2017-10-14T00:05:04.310Z,1010.7
2017-10-14T00:06:05.030Z,1010.6
2017-10-14T00:07:05.736Z,1010.7
2017-10-14T00:08:06.501Z,1010.6
2017-10-14T00:09:07.231Z,1010.6
2017-10-14T00:10:08.020Z,1010.7
2017-10-14T00:11:08.762Z,1010.6
2017-10-14T00:12:09.614Z,1010.6
2017-10-14T00:13:10.403Z,1010.6
2017-10-14T00:14:11.202Z,1010.6
2017-10-14T00:15:11.979Z,1010.6
2017-10-14T00:16:12.728Z,1010.6
2017-10-14T00:17:13.531Z,1010.7
2017-10-14T00:18:14.265Z,1010.7
2017-10-14T00:19:15.074Z,1010.7
2017-10-14T00:20:15.900Z,1010.7
2017-10-14T00:21:16.631Z,1010.6
2017-10-14T00:22:17.430Z,1010.6
2017-10-14T00:23:18.171Z,1010.7
2017-10-14T00:24:18.917Z,1010.6
2017-10-14T00:25:19.591Z,1010.6
2017-10-14T00:26:20.630Z,1010.6
2017-10-14T00:27:21.370Z,1010.6
2017-10-14T00:28:22.102Z,1010.6
2017-10-14T00:29:22.879Z,1010.6
2017-10-14T00:30:23.619Z,1010.6
2017-10-14T00:31:24.711Z,1010.6
2017-10-14T00:32:25.441Z,1010.6
2017-10-14T00:33:26.257Z,1010.6
2017-10-14T00:34:27.072Z,1010.6
2017-10-14T00:35:27.879Z,1010.6
2017-10-14T00:36:28.619Z,1010.6
2017-10-14T00:37:29.361Z,1010.6
2017-10-14T00:38:30.164Z,1010.6
2017-10-14T00:39:30.969Z,1010.6
2017-10-14T00:40:31.701Z,1010.6
2017-10-14T00:41:32.521Z,1010.6
2017-10-14T00:42:33.337Z,1010.6
2017-10-14T00:43:34.069Z,1010.6
2017-10-14T00:44:34.835Z,1010.6
2017-10-14T00:45:35.640Z,1010.6
2017-10-14T00:46:36.379Z,1010.6
2017-10-14T00:47:37.127Z,1010.6
2017-10-14T00:48:37.911Z,1010.6
2017-10-14T00:49:38.741Z,1010.6
2017-10-14T00:50:39.484Z,1010.6
2017-10-14T00:51:40.264Z,1010.5
2017-10-14T00:52:41.008Z,1010.5
2017-10-14T00:53:41.769Z,1010.6
2017-10-14T00:54:42.498Z,1010.5
2017-10-14T00:55:43.232Z,1010.5
2017-10-14T00:56:44.019Z,1010.5
2017-10-14T00:57:44.758Z,1010.5
2017-10-14T00:58:45.494Z,1010.6
2017-10-14T00:59:46.278Z,1010.5
2017-10-14T01:00:47.013Z,1010.5
2017-10-14T01:01:48.094Z,1010.5
2017-10-14T01:02:48.834Z,1010.5
2017-10-14T01:03:49.569Z,1010.5
2017-10-14T01:04:50.314Z,1010.5
2017-10-14T01:05:51.096Z,1010.5
2017-10-14T01:06:51.942Z,1010.5
2017-10-14T01:07:52.659Z,1010.5
2017-10-14T01:08:53.392Z,1010.4
2017-10-14T01:09:54.185Z,1010.4
2017-10-14T01:10:54.989Z,1010.5
2017-10-14T01:11:55.849Z,1010.5
2017-10-14T01:12:56.585Z,1010.4
2017-10-14T01:13:57.369Z,1010.5
2017-10-14T01:14:58.109Z,1010.4
2017-10-14T01:15:58.849Z,1010.5
2017-10-14T01:16:59.578Z,1010.4
2017-10-14T01:18:00.300Z,1010.5
2017-10-14T01:19:01.100Z,1010.5
2017-10-14T01:20:01.829Z,1010.5
2017-10-14T01:21:02.565Z,1010.5
2017-10-14T01:22:03.680Z,1010.5
2017-10-14T01:23:04.415Z,1010.5
2017-10-14T01:24:05.140Z,1010.5
2017-10-14T01:25:05.881Z,1010.5
2017-10-14T01:26:06.689Z,1010.5
2017-10-14T01:27:07.417Z,1010.5
2017-10-14T01:28:08.154Z,1010.5
2017-10-14T01:29:08.953Z,1010.5
2017-10-14T01:30:09.724Z,1010.6
2017-10-14T01:31:10.462Z,1010.5
2017-10-14T01:32:11.351Z,1010.5
2017-10-14T01:33:12.160Z,1010.5
2017-10-14T01:34:12.952Z,1010.5
2017-10-14T01:35:13.692Z,1010.5
2017-10-14T01:36:14.421Z,1010.5
2017-10-14T01:37:15.253Z,1010.5
2017-10-14T01:38:16.086Z,1010.5
2017-10-14T01:39:16.913Z,1010.5
2017-10-14T01:40:17.644Z,1010.5
2017-10-14T01:41:18.452Z,1010.5
2017-10-14T01:42:19.198Z,1010.5
2017-10-14T01:43:19.992Z,1010.5
2017-10-14T01:44:20.737Z,1010.5
2017-10-14T01:45:21.522Z,1010.5
2017-10-14T01:46:22.265Z,1010.6
2017-10-14T01:47:23.061Z,1010.5
2017-10-14T01:48:23.850Z,1010.5
2017-10-14T01:49:24.627Z,1010.5
2017-10-14T01:50:25.419Z,1010.5
2017-10-14T01:51:26.217Z,1010.5
2017-10-14T01:52:26.953Z,1010.5
2017-10-14T01:53:27.732Z,1010.5
2017-10-14T01:54:28.486Z,1010.5
2017-10-14T01:55:29.281Z,1010.5
2017-10-14T01:56:30.014Z,1010.5
2017-10-14T01:57:30.754Z,1010.5
2017-10-14T01:58:31.538Z,1010.5
2017-10-14T01:59:32.343Z,1010.4
2017-10-14T02:00:33.084Z,1010.5
2017-10-14T02:01:33.834Z,1010.5
2017-10-14T02:02:34.563Z,1010.4
2017-10-14T02:03:35.344Z,1010.5
2017-10-14T02:04:36.156Z,1010.4
2017-10-14T02:05:36.928Z,1010.4
2017-10-14T02:06:37.671Z,1010.4
2017-10-14T02:07:38.408Z,1010.4
2017-10-14T02:08:39.189Z,1010.4
2017-10-14T02:09:39.922Z,1010.4
2017-10-14T02:10:40.688Z,1010.4
2017-10-14T02:11:41.420Z,1010.4
2017-10-14T02:12:42.220Z,1010.4
2017-10-14T02:13:43.008Z,1010.4
2017-10-14T02:14:43.805Z,1010.4
2017-10-14T02:15:44.539Z,1010.4
2017-10-14T02:16:45.272Z,1010.4
2017-10-14T02:17:45.998Z,1010.4
2017-10-14T02:18:46.783Z,1010.4
2017-10-14T02:19:47.599Z,1010.4
2017-10-14T02:20:48.384Z,1010.4
2017-10-14T02:21:49.195Z,1010.4
2017-10-14T02:22:49.953Z,1010.4
2017-10-14T02:23:50.725Z,1010.3
2017-10-14T02:24:51.538Z,1010.3
2017-10-14T02:25:52.287Z,1010.3
2017-10-14T02:26:53.021Z,1010.3
2017-10-14T02:27:53.753Z,1010.3
2017-10-14T02:28:54.892Z,1010.3
2017-10-14T02:29:55.621Z,1010.3
2017-10-14T02:30:56.370Z,1010.3
2017-10-14T02:31:57.112Z,1010.3
2017-10-14T02:32:57.909Z,1010.3
2017-10-14T02:33:58.801Z,1010.3
2017-10-14T02:34:59.577Z,1010.3
2017-10-14T02:36:00.347Z,1010.3
2017-10-14T02:37:01.160Z,1010.3
2017-10-14T02:38:01.954Z,1010.3
2017-10-14T02:39:02.781Z,1010.3
2017-10-14T02:40:03.592Z,1010.3
2017-10-14T02:41:04.397Z,1010.3
2017-10-14T02:42:05.186Z,1010.3
2017-10-14T02:43:05.969Z,1010.3
2017-10-14T02:44:06.791Z,1010.3
2017-10-14T02:45:07.519Z,1010.3
2017-10-14T02:46:08.682Z,1010.3
2017-10-14T02:47:09.425Z,1010.3
2017-10-14T02:48:10.207Z,1010.3
2017-10-14T02:49:10.946Z,1010.3
2017-10-14T02:50:11.717Z,1010.3
2017-10-14T02:51:12.451Z,1010.3
2017-10-14T02:52:13.649Z,1010.3
2017-10-14T02:53:14.377Z,1010.3
2017-10-14T02:54:15.108Z,1010.3
2017-10-14T02:55:15.854Z,1010.3
2017-10-14T02:56:16.643Z,1010.3
2017-10-14T02:57:17.422Z,1010.4
2017-10-14T02:58:18.152Z,1010.3
2017-10-14T02:59:18.912Z,1010.4
2017-10-14T03:00:19.610Z,1010.4
2017-10-14T03:01:20.413Z,1010.4
2017-10-14T03:02:21.438Z,1010.4
2017-10-14T03:03:22.224Z,1010.4
2017-10-14T03:04:23.027Z,1010.4
2017-10-14T03:05:23.803Z,1010.4
2017-10-14T03:06:24.613Z,1010.4
2017-10-14T03:07:25.451Z,1010.4
2017-10-14T03:08:26.181Z,1010.3
2017-10-14T03:09:26.986Z,1010.3
2017-10-14T03:10:27.719Z,1010.4
2017-10-14T03:11:28.522Z,1010.3
2017-10-14T03:12:29.361Z,1010.4
2017-10-14T03:13:30.152Z,1010.4
2017-10-14T03:14:30.886Z,1010.3
2017-10-14T03:15:31.687Z,1010.3
2017-10-14T03:16:32.498Z,1010.3
2017-10-14T03:17:33.293Z,1010.3
2017-10-14T03:18:34.066Z,1010.3
2017-10-14T03:19:34.813Z,1010.3
2017-10-14T03:20:35.624Z,1010.3
2017-10-14T03:21:36.395Z,1010.4
2017-10-14T03:22:37.470Z,1010.4
2017-10-14T03:23:38.265Z,1010.4
2017-10-14T03:24:39.012Z,1010.4
2017-10-14T03:25:39.769Z,1010.3
2017-10-14T03:26:40.585Z,1010.4
2017-10-14T03:27:41.370Z,1010.4
2017-10-14T03:28:42.106Z,1010.4
2017-10-14T03:29:42.838Z,1010.4
2017-10-14T03:30:43.627Z,1010.4
2017-10-14T03:31:44.363Z,1010.4
2017-10-14T03:32:45.136Z,1010.4
2017-10-14T03:33:45.946Z,1010.4
2017-10-14T03:34:46.755Z,1010.4
2017-10-14T03:35:47.550Z,1010.4
2017-10-14T03:36:48.279Z,1010.5
2017-10-14T03:37:49.129Z,1010.5
2017-10-14T03:38:49.924Z,1010.5
2017-10-14T03:39:50.732Z,1010.5
2017-10-14T03:40:51.459Z,1010.5
2017-10-14T03:41:52.257Z,1010.5
2017-10-14T03:42:52.997Z,1010.5
2017-10-14T03:43:53.788Z,1010.5
2017-10-14T03:44:54.533Z,1010.5
2017-10-14T03:45:55.648Z,1010.4
2017-10-14T03:46:56.437Z,1010.5
2017-10-14T03:47:57.170Z,1010.5
2017-10-14T03:48:57.959Z,1010.4
2017-10-14T03:49:58.697Z,1010.4
2017-10-14T03:50:59.473Z,1010.4
2017-10-14T03:52:00.199Z,1010.4
2017-10-14T03:53:00.998Z,1010.5
2017-10-14T03:54:01.736Z,1010.4
2017-10-14T03:55:02.542Z,1010.4
2017-10-14T03:56:03.391Z,1010.4
2017-10-14T03:57:04.156Z,1010.5
2017-10-14T03:58:04.949Z,1010.4
2017-10-14T03:59:05.749Z,1010.5
2017-10-14T04:00:06.487Z,1010.5
2017-10-14T04:01:07.207Z,1010.5
2017-10-14T04:02:07.945Z,1010.4
2017-10-14T04:03:08.768Z,1010.4
2017-10-14T04:04:09.502Z,1010.5
2017-10-14T04:05:10.286Z,1010.5
2017-10-14T04:06:11.017Z,1010.4
2017-10-14T04:07:11.753Z,1010.4
2017-10-14T04:08:12.556Z,1010.4
2017-10-14T04:09:13.306Z,1010.4
2017-10-14T04:10:14.111Z,1010.4
2017-10-14T04:11:14.843Z,1010.4
2017-10-14T04:12:15.618Z,1010.4
2017-10-14T04:13:16.400Z,1010.4
2017-10-14T04:14:17.131Z,1010.4
2017-10-14T04:15:17.876Z,1010.4
2017-10-14T04:16:18.668Z,1010.4
2017-10-14T04:17:19.393Z,1010.5
2017-10-14T04:18:20.531Z,1010.5
2017-10-14T04:19:21.334Z,1010.5
2017-10-14T04:20:22.113Z,1010.5
2017-10-14T04:21:22.917Z,1010.4
2017-10-14T04:22:23.718Z,1010.5
2017-10-14T04:23:24.549Z,1010.5
2017-10-14T04:24:25.278Z,1010.5
2017-10-14T04:25:26.056Z,1010.5
2017-10-14T04:26:26.844Z,1010.5
2017-10-14T04:27:27.661Z,1010.6
2017-10-14T04:28:28.397Z,1010.5
2017-10-14T04:29:29.142Z,1010.5
2017-10-14T04:30:29.929Z,1010.6
2017-10-14T04:31:30.672Z,1010.6
2017-10-14T04:32:31.407Z,1010.5
2017-10-14T04:33:32.240Z,1010.6
2017-10-14T04:34:33.051Z,1010.6
2017-10-14T04:35:33.791Z,1010.6
2017-10-14T04:36:34.528Z,1010.6
2017-10-14T04:37:35.284Z,1010.6
2017-10-14T04:38:36.189Z,1010.6
2017-10-14T04:39:36.928Z,1010.6
2017-10-14T04:40:37.670Z,1010.6
2017-10-14T04:41:38.412Z,1010.6
2017-10-14T04:42:39.145Z,1010.6
2017-10-14T04:43:39.929Z,1010.6
2017-10-14T04:44:40.727Z,1010.5
2017-10-14T04:45:41.537Z,1010.5
2017-10-14T04:46:42.261Z,1010.5
2017-10-14T04:47:42.987Z,1010.6
2017-10-14T04:48:44.063Z,1010.6
2017-10-14T04:49:44.814Z,1010.6
2017-10-14T04:50:45.612Z,1010.5
2017-10-14T04:51:46.352Z,1010.5
2017-10-14T04:52:47.082Z,1010.5
2017-10-14T04:53:47.808Z,1010.5
2017-10-14T04:54:48.616Z,1010.5
2017-10-14T04:55:49.343Z,1010.5
2017-10-14T04:56:50.160Z,1010.5
2017-10-14T04:57:50.945Z,1010.5
2017-10-14T04:58:51.729Z,1010.5
2017-10-14T04:59:52.479Z,1010.5
2017-10-14T05:00:53.265Z,1010.5
2017-10-14T05:01:53.989Z,1010.4
2017-10-14T05:02:54.804Z,1010.5
2017-10-14T05:03:55.715Z,1010.4
2017-10-14T05:04:56.473Z,1010.5
2017-10-14T05:05:57.203Z,1010.5
2017-10-14T05:06:58.045Z,1010.5
2017-10-14T05:07:58.834Z,1010.5
2017-10-14T05:08:59.621Z,1010.5
2017-10-14T05:10:00.344Z,1010.4
2017-10-14T05:11:01.162Z,1010.4
2017-10-14T05:12:01.948Z,1010.5
2017-10-14T05:13:02.701Z,1010.5
2017-10-14T05:14:03.857Z,1010.4
2017-10-14T05:15:04.580Z,1010.4
2017-10-14T05:16:05.382Z,1010.4
2017-10-14T05:17:06.110Z,1010.4
2017-10-14T05:18:06.844Z,1010.5
2017-10-14T05:19:08.059Z,1010.4
2017-10-14T05:20:08.865Z,1010.5
2017-10-14T05:21:09.665Z,1010.5
2017-10-14T05:22:10.468Z,1010.4
2017-10-14T05:23:11.212Z,1010.5
2017-10-14T05:24:12.342Z,1010.4
2017-10-14T05:25:13.076Z,1010.4
2017-10-14T05:26:13.824Z,1010.4
2017-10-14T05:27:14.628Z,1010.4
2017-10-14T05:28:15.371Z,1010.4
2017-10-14T05:29:16.206Z,1010.4
2017-10-14T05:30:17.020Z,1010.4
2017-10-14T05:31:17.774Z,1010.4
2017-10-14T05:32:18.501Z,1010.4
2017-10-14T05:33:19.284Z,1010.4
2017-10-14T05:34:20.175Z,1010.4
2017-10-14T05:35:20.986Z,1010.4
2017-10-14T05:36:21.709Z,1010.4
2017-10-14T05:37:22.453Z,1010.4
2017-10-14T05:38:23.263Z,1010.4
2017-10-14T05:39:24.047Z,1010.4
2017-10-14T05:40:24.804Z,1010.4
2017-10-14T05:41:25.538Z,1010.5
2017-10-14T05:42:26.356Z,1010.5
2017-10-14T05:43:27.107Z,1010.5
2017-10-14T05:44:27.979Z,1010.5
2017-10-14T05:45:28.769Z,1010.5
2017-10-14T05:46:29.512Z,1010.5
2017-10-14T05:47:30.239Z,1010.6
2017-10-14T05:48:30.976Z,1010.6
2017-10-14T05:49:31.720Z,1010.6
2017-10-14T05:50:32.507Z,1010.6
2017-10-14T05:51:33.248Z,1010.6
2017-10-14T05:52:33.988Z,1010.6
2017-10-14T05:53:34.731Z,1010.6
2017-10-14T05:54:35.540Z,1010.5
2017-10-14T05:55:36.750Z,1010.5
2017-10-14T05:56:37.548Z,1010.6
2017-10-14T05:57:38.269Z,1010.5
2017-10-14T05:58:39.013Z,1010.5
2017-10-14T05:59:39.764Z,1010.6
2017-10-14T06:00:40.608Z,1010.6
2017-10-14T06:01:41.353Z,1010.6
2017-10-14T06:02:42.079Z,1010.6
2017-10-14T06:03:42.811Z,1010.6
2017-10-14T06:04:43.542Z,1010.7
2017-10-14T06:05:44.370Z,1010.6
2017-10-14T06:06:45.174Z,1010.7
2017-10-14T06:07:45.993Z,1010.7
2017-10-14T06:08:46.761Z,1010.6
2017-10-14T06:09:47.498Z,1010.7
2017-10-14T06:10:48.629Z,1010.6
2017-10-14T06:11:49.437Z,1010.6
2017-10-14T06:12:50.169Z,1010.6
2017-10-14T06:13:50.913Z,1010.6
2017-10-14T06:14:51.668Z,1010.7
2017-10-14T06:15:52.493Z,1010.6
2017-10-14T06:16:53.233Z,1010.7
2017-10-14T06:17:53.971Z,1010.6
2017-10-14T06:18:54.713Z,1010.6
2017-10-14T06:19:55.533Z,1010.7
2017-10-14T06:20:56.428Z,1010.7
2017-10-14T06:21:57.164Z,1010.7
2017-10-14T06:22:57.954Z,1010.6
2017-10-14T06:23:58.633Z,1010.7
2017-10-14T06:24:59.454Z,1010.6
2017-10-14T06:26:00.630Z,1010.7
2017-10-14T06:27:01.455Z,1010.7
2017-10-14T06:28:02.261Z,1010.7
2017-10-14T06:29:03.053Z,1010.7
2017-10-14T06:30:03.819Z,1010.6
2017-10-14T06:31:04.613Z,1010.7
2017-10-14T06:32:05.432Z,1010.7
2017-10-14T06:33:06.160Z,1010.7
2017-10-14T06:34:06.975Z,1010.7
2017-10-14T06:35:07.771Z,1010.8
2017-10-14T06:36:08.982Z,1010.8
2017-10-14T06:37:09.738Z,1010.8
2017-10-14T06:38:10.542Z,1010.8
2017-10-14T06:39:11.268Z,1010.8
2017-10-14T06:40:12.047Z,1010.8
2017-10-14T06:41:12.912Z,1010.7
2017-10-14T06:42:13.647Z,1010.8
2017-10-14T06:43:14.452Z,1010.9
2017-10-14T06:44:15.262Z,1010.8
2017-10-14T06:45:16.000Z,1010.8
2017-10-14T06:46:16.830Z,1010.9
2017-10-14T06:47:17.654Z,1010.8
2017-10-14T06:48:18.482Z,1010.9
2017-10-14T06:49:19.266Z,1010.9
2017-10-14T06:50:20.039Z,1010.9
2017-10-14T06:51:20.828Z,1010.9
2017-10-14T06:52:21.569Z,1010.9
2017-10-14T06:53:22.309Z,1010.9
2017-10-14T06:54:23.045Z,1011.0
2017-10-14T06:55:23.829Z,1010.9
2017-10-14T06:56:24.668Z,1010.9
2017-10-14T06:57:25.455Z,1011.0
2017-10-14T06:58:26.281Z,1011.0
2017-10-14T06:59:27.033Z,1011.0
2017-10-14T07:00:27.850Z,1011.0
2017-10-14T07:01:28.722Z,1011.0
2017-10-14T07:02:29.533Z,1011.1
2017-10-14T07:03:30.354Z,1011.1
2017-10-14T07:04:31.101Z,1011.1
2017-10-14T07:05:31.839Z,1011.1
2017-10-14T07:06:32.878Z,1011.1
2017-10-14T07:07:33.648Z,1011.1
2017-10-14T07:08:34.388Z,1011.1
2017-10-14T07:09:35.120Z,1011.1
2017-10-14T07:10:35.905Z,1011.1
2017-10-14T07:11:36.738Z,1011.1
2017-10-14T07:12:37.470Z,1011.1
2017-10-14T07:13:38.272Z,1011.1
2017-10-14T07:14:39.092Z,1011.2
2017-10-14T07:15:39.821Z,1011.1
2017-10-14T07:16:40.564Z,1011.1
2017-10-14T07:17:41.302Z,1011.2
2017-10-14T07:18:42.037Z,1011.2
2017-10-14T07:19:42.852Z,1011.2
2017-10-14T07:20:43.580Z,1011.2
2017-10-14T07:21:44.391Z,1011.2
2017-10-14T07:22:45.120Z,1011.3
2017-10-14T07:23:45.862Z,1011.3
2017-10-14T07:24:46.688Z,1011.2
2017-10-14T07:25:47.438Z,1011.3
2017-10-14T07:26:48.188Z,1011.3
2017-10-14T07:27:48.932Z,1011.2
2017-10-14T07:28:49.748Z,1011.2
2017-10-14T07:29:50.488Z,1011.3
2017-10-14T07:30:51.241Z,1011.3
2017-10-14T07:31:52.381Z,1011.3
2017-10-14T07:32:53.201Z,1011.2
2017-10-14T07:33:53.943Z,1011.2
2017-10-14T07:34:54.752Z,1011.2
2017-10-14T07:35:55.504Z,1011.3
2017-10-14T07:36:56.398Z,1011.2
2017-10-14T07:37:57.129Z,1011.3
2017-10-14T07:38:57.862Z,1011.3
2017-10-14T07:39:58.608Z,1011.3
2017-10-14T07:40:59.411Z,1011.3
2017-10-14T07:42:00.140Z,1011.3
2017-10-14T07:43:00.869Z,1011.4
2017-10-14T07:44:01.607Z,1011.4
2017-10-14T07:45:02.344Z,1011.4
2017-10-14T07:46:03.149Z,1011.4
2017-10-14T07:47:03.998Z,1011.4
2017-10-14T07:48:04.728Z,1011.4
2017-10-14T07:49:05.481Z,1011.5
2017-10-14T07:50:06.223Z,1011.4
2017-10-14T07:51:06.967Z,1011.5
2017-10-14T07:52:07.777Z,1011.5
2017-10-14T07:53:08.518Z,1011.5
2017-10-14T07:54:09.261Z,1011.5
2017-10-14T07:55:09.988Z,1011.5
2017-10-14T07:56:10.723Z,1011.5
2017-10-14T07:57:11.453Z,1011.5
2017-10-14T07:58:12.196Z,1011.5
2017-10-14T07:59:12.998Z,1011.4
2017-10-14T08:00:13.742Z,1011.4
2017-10-14T08:01:14.822Z,1011.5
2017-10-14T08:02:15.619Z,1011.5
2017-10-14T08:03:16.424Z,1011.4
2017-10-14T08:04:17.234Z,1011.4
2017-10-14T08:05:17.915Z,1011.5
2017-10-14T08:06:18.812Z,1011.5
2017-10-14T08:07:19.557Z,1011.5
2017-10-14T08:08:20.362Z,1011.4
2017-10-14T08:09:21.098Z,1011.5
2017-10-14T08:10:21.830Z,1011.5
2017-10-14T08:11:22.585Z,1011.5
2017-10-14T08:12:23.666Z,1011.5
2017-10-14T08:13:24.453Z,1011.5
2017-10-14T08:14:25.247Z,1011.5
2017-10-14T08:15:25.972Z,1011.5
2017-10-14T08:16:26.708Z,1011.5
2017-10-14T08:17:27.897Z,1011.5
2017-10-14T08:18:28.652Z,1011.5
2017-10-14T08:19:29.452Z,1011.6
2017-10-14T08:20:30.257Z,1011.5
2017-10-14T08:21:31.046Z,1011.6
2017-10-14T08:22:31.841Z,1011.5
2017-10-14T08:23:32.580Z,1011.6
2017-10-14T08:24:33.322Z,1011.5
2017-10-14T08:25:34.062Z,1011.5
2017-10-14T08:26:34.800Z,1011.6
2017-10-14T08:27:35.692Z,1011.5
2017-10-14T08:28:36.436Z,1011.5
2017-10-14T08:29:37.255Z,1011.6
2017-10-14T08:30:38.063Z,1011.6
2017-10-14T08:31:38.887Z,1011.5
2017-10-14T08:32:39.664Z,1011.5
2017-10-14T08:33:40.390Z,1011.6
2017-10-14T08:34:41.188Z,1011.6
2017-10-14T08:35:42.242Z,1011.6
2017-10-14T08:36:42.987Z,1011.6
2017-10-14T08:37:43.732Z,1011.5
2017-10-14T08:38:44.477Z,1011.5
2017-10-14T08:39:45.273Z,1011.5
2017-10-14T08:40:46.158Z,1011.5
2017-10-14T08:41:46.903Z,1011.6
2017-10-14T08:42:47.642Z,1011.5
2017-10-14T08:43:48.392Z,1011.5
2017-10-14T08:44:49.115Z,1011.5
2017-10-14T08:45:49.900Z,1011.5
2017-10-14T08:46:50.716Z,1011.5
2017-10-14T08:47:51.516Z,1011.5
2017-10-14T08:48:52.345Z,1011.6
2017-10-14T08:49:53.078Z,1011.6
2017-10-14T08:50:54.224Z,1011.6
2017-10-14T08:51:54.969Z,1011.6
2017-10-14T08:52:55.725Z,1011.6
2017-10-14T08:53:56.476Z,1011.6
2017-10-14T08:54:57.250Z,1011.5
2017-10-14T08:55:58.050Z,1011.6
2017-10-14T08:56:58.805Z,1011.6
2017-10-14T08:57:59.541Z,1011.6
2017-10-14T08:59:00.282Z,1011.6
2017-10-14T09:00:01.086Z,1011.6
2017-10-14T09:01:02.001Z,1011.6
2017-10-14T09:02:02.843Z,1011.6
2017-10-14T09:03:03.577Z,1011.7
2017-10-14T09:04:04.323Z,1011.6
2017-10-14T09:05:05.110Z,1011.7
2017-10-14T09:06:06.144Z,1011.6
2017-10-14T09:07:06.894Z,1011.6
2017-10-14T09:08:07.631Z,1011.6
2017-10-14T09:09:08.383Z,1011.6
2017-10-14T09:10:09.122Z,1011.6
2017-10-14T09:11:10.055Z,1011.6
2017-10-14T09:12:10.845Z,1011.7
2017-10-14T09:13:11.584Z,1011.6
2017-10-14T09:14:12.387Z,1011.6
2017-10-14T09:15:13.206Z,1011.6
2017-10-14T09:16:14.111Z,1011.6
2017-10-14T09:17:14.921Z,1011.6
2017-10-14T09:18:15.736Z,1011.6
2017-10-14T09:19:16.477Z,1011.6
2017-10-14T09:20:17.271Z,1011.6
2017-10-14T09:21:18.162Z,1011.6
2017-10-14T09:22:18.961Z,1011.6
2017-10-14T09:23:19.790Z,1011.6
2017-10-14T09:24:20.551Z,1011.7
2017-10-14T09:25:21.280Z,1011.6
2017-10-14T09:26:22.083Z,1011.6
2017-10-14T09:27:22.821Z,1011.7
2017-10-14T09:28:23.554Z,1011.6
2017-10-14T09:29:24.295Z,1011.6
2017-10-14T09:30:25.081Z,1011.6
2017-10-14T09:31:25.941Z,1011.6
2017-10-14T09:32:26.689Z,1011.7
2017-10-14T09:33:27.519Z,1011.6
2017-10-14T09:34:28.255Z,1011.7
2017-10-14T09:35:29.009Z,1011.7
2017-10-14T09:36:29.827Z,1011.6
2017-10-14T09:37:30.580Z,1011.7
2017-10-14T09:38:31.336Z,1011.7
2017-10-14T09:39:32.072Z,1011.7
2017-10-14T09:40:32.889Z,1011.7
2017-10-14T09:41:34.032Z,1011.7
2017-10-14T09:42:34.786Z,1011.6
2017-10-14T09:43:35.591Z,1011.7
2017-10-14T09:44:36.653Z,1011.7
2017-10-14T09:45:37.757Z,1011.7
2017-10-14T09:46:39.680Z,1011.6
2017-10-14T09:47:41.722Z,1011.8
2017-10-14T09:48:43.940Z,1011.7
2017-10-14T09:49:44.781Z,1011.7
2017-10-14T09:50:45.824Z,1011.6
2017-10-14T09:51:47.163Z,1011.7
2017-10-14T09:52:47.946Z,1011.7
2017-10-14T09:53:48.776Z,1011.8
2017-10-14T09:54:50.248Z,1011.7
2017-10-14T09:55:51.142Z,1011.7
2017-10-14T09:56:52.250Z,1011.7
2017-10-14T09:57:53.011Z,1011.7
2017-10-14T09:58:53.817Z,1011.7
2017-10-14T09:59:54.555Z,1011.7
2017-10-14T10:00:55.362Z,1011.6
2017-10-14T10:01:56.152Z,1011.7
2017-10-14T10:02:56.900Z,1011.7
2017-10-14T10:03:57.638Z,1011.8
2017-10-14T10:04:58.370Z,1011.7
2017-10-14T10:05:59.128Z,1011.7
2017-10-14T10:06:59.935Z,1011.7
2017-10-14T10:08:00.731Z,1011.7
2017-10-14T10:09:01.549Z,1011.7
2017-10-14T10:10:02.303Z,1011.6
2017-10-14T10:11:03.033Z,1011.7
2017-10-14T10:12:03.886Z,1011.6
2017-10-14T10:13:04.622Z,1011.7
2017-10-14T10:14:05.405Z,1011.6
2017-10-14T10:15:06.237Z,1011.6
2017-10-14T10:16:07.064Z,1011.6
2017-10-14T10:17:07.918Z,1011.5
2017-10-14T10:18:08.754Z,1011.6
2017-10-14T10:19:09.521Z,1011.6
2017-10-14T10:20:10.277Z,1011.6
2017-10-14T10:21:11.054Z,1011.5
2017-10-14T10:22:11.932Z,1011.5
2017-10-14T10:23:12.680Z,1011.5
2017-10-14T10:24:13.492Z,1011.5
2017-10-14T10:25:14.311Z,1011.5
2017-10-14T10:26:15.059Z,1011.5
2017-10-14T10:27:15.842Z,1011.6
2017-10-14T10:28:16.643Z,1011.6
2017-10-14T10:29:17.470Z,1011.6
2017-10-14T10:30:18.221Z,1011.6
2017-10-14T10:31:18.971Z,1011.6
2017-10-14T10:32:19.752Z,1011.6
2017-10-14T10:33:20.502Z,1011.6
2017-10-14T10:34:21.248Z,1011.5
2017-10-14T10:35:22.047Z,1011.5
2017-10-14T10:36:22.894Z,1011.6
2017-10-14T10:37:24.000Z,1011.6
2017-10-14T10:38:24.810Z,1011.5
2017-10-14T10:39:25.558Z,1011.6
2017-10-14T10:40:26.355Z,1011.6
2017-10-14T10:41:27.114Z,1011.6
2017-10-14T10:42:27.931Z,1011.5
2017-10-14T10:43:28.673Z,1011.5
2017-10-14T10:44:29.413Z,1011.6
2017-10-14T10:45:30.249Z,1011.6
2017-10-14T10:46:31.050Z,1011.6
2017-10-14T10:47:32.141Z,1011.6
2017-10-14T10:48:32.901Z,1011.6
2017-10-14T10:49:33.651Z,1011.7
2017-10-14T10:50:34.452Z,1011.6
2017-10-14T10:51:35.192Z,1011.6
2017-10-14T10:52:36.585Z,1011.6
2017-10-14T10:53:37.261Z,1011.5
2017-10-14T10:54:37.995Z,1011.5
2017-10-14T10:55:38.730Z,1011.5
2017-10-14T10:56:39.471Z,1011.5
2017-10-14T10:57:40.264Z,1011.5
2017-10-14T10:58:41.062Z,1011.5
2017-10-14T10:59:41.796Z,1011.5
2017-10-14T11:00:42.551Z,1011.5
2017-10-14T11:01:43.299Z,1011.5
2017-10-14T11:02:44.390Z,1011.4
2017-10-14T11:03:45.139Z,1011.4
2017-10-14T11:04:45.916Z,1011.4
2017-10-14T11:05:46.656Z,1011.4
2017-10-14T11:06:47.427Z,1011.4
2017-10-14T11:07:48.170Z,1011.4
2017-10-14T11:08:49.052Z,1011.4
2017-10-14T11:09:49.744Z,1011.4
2017-10-14T11:10:50.717Z,1011.4
2017-10-14T11:11:51.432Z,1011.4
2017-10-14T11:12:52.282Z,1011.3
2017-10-14T11:13:53.110Z,1011.4
2017-10-14T11:14:53.847Z,1011.4
2017-10-14T11:15:54.608Z,1011.3
2017-10-14T11:16:55.443Z,1011.3
2017-10-14T11:17:56.386Z,1011.4
2017-10-14T11:18:57.119Z,1011.4
2017-10-14T11:19:57.942Z,1011.4
2017-10-14T11:20:58.682Z,1011.4
2017-10-14T11:21:59.513Z,1011.4
2017-10-14T11:23:00.670Z,1011.4
2017-10-14T11:24:01.407Z,1011.4
2017-10-14T11:25:02.149Z,1011.4
2017-10-14T11:26:02.890Z,1011.4
2017-10-14T11:27:03.630Z,1011.4
2017-10-14T11:28:04.543Z,1011.3
2017-10-14T11:29:05.322Z,1011.3
2017-10-14T11:30:06.066Z,1011.3
2017-10-14T11:31:06.872Z,1011.3
2017-10-14T11:32:07.693Z,1011.3
2017-10-14T11:33:08.496Z,1011.3
2017-10-14T11:34:09.236Z,1011.3
2017-10-14T11:35:10.389Z,1011.4
2017-10-14T11:36:11.138Z,1011.3
2017-10-14T11:37:11.931Z,1011.3
2017-10-14T11:38:12.675Z,1011.3
2017-10-14T11:39:13.430Z,1011.3
2017-10-14T11:40:14.254Z,1011.2
2017-10-14T11:41:15.456Z,1011.2
2017-10-14T11:42:16.196Z,1011.2
2017-10-14T11:43:16.926Z,1011.1
2017-10-14T11:44:17.667Z,1011.2
2017-10-14T11:45:18.471Z,1011.2
2017-10-14T11:46:19.255Z,1011.1
2017-10-14T11:47:20.003Z,1011.2
2017-10-14T11:48:20.816Z,1011.1
2017-10-14T11:49:21.567Z,1011.1
2017-10-14T11:50:22.313Z,1011.1
2017-10-14T11:51:23.240Z,1011.1
2017-10-14T11:52:23.979Z,1011.1
2017-10-14T11:53:24.842Z,1011.2
2017-10-14T11:54:25.586Z,1011.2
2017-10-14T11:55:26.344Z,1011.1
2017-10-14T11:56:27.177Z,1011.1
2017-10-14T11:57:27.990Z,1011.1
2017-10-14T11:58:28.739Z,1011.1
2017-10-14T11:59:29.476Z,1011.1
2017-10-14T12:00:30.223Z,1011.1
2017-10-14T12:01:31.119Z,1011.1
2017-10-14T12:02:31.872Z,1011.1
2017-10-14T12:03:32.668Z,1011.1
2017-10-14T12:04:33.419Z,1011.1
2017-10-14T12:05:34.154Z,1011.1
2017-10-14T12:06:34.946Z,1011.1
2017-10-14T12:07:35.738Z,1011.0
2017-10-14T12:08:36.514Z,1011.0
2017-10-14T12:09:37.255Z,1011.1
2017-10-14T12:10:38.071Z,1011.0
2017-10-14T12:11:38.885Z,1011.0
2017-10-14T12:12:39.619Z,1011.1
2017-10-14T12:13:40.411Z,1011.1
2017-10-14T12:14:41.161Z,1011.1
2017-10-14T12:15:42.019Z,1011.2
2017-10-14T12:16:42.910Z,1011.2
2017-10-14T12:17:43.716Z,1011.2
2017-10-14T12:18:44.522Z,1011.2
2017-10-14T12:19:45.270Z,1011.2
2017-10-14T12:20:46.019Z,1011.2
2017-10-14T12:21:46.863Z,1011.2
2017-10-14T12:22:47.620Z,1011.2
2017-10-14T12:23:48.355Z,1011.2
2017-10-14T12:24:49.096Z,1011.2
2017-10-14T12:25:49.845Z,1011.2
2017-10-14T12:26:50.590Z,1011.2
2017-10-14T12:27:51.329Z,1011.2
2017-10-14T12:28:52.180Z,1011.2
2017-10-14T12:29:52.990Z,1011.2
2017-10-14T12:30:53.726Z,1011.2
2017-10-14T12:31:54.471Z,1011.2
2017-10-14T12:32:55.267Z,1011.2
2017-10-14T12:33:56.129Z,1011.2
2017-10-14T12:34:56.883Z,1011.2
2017-10-14T12:35:57.716Z,1011.2
2017-10-14T12:36:58.510Z,1011.2
2017-10-14T12:37:59.241Z,1011.2